This is the latest recevied weather packets stored in our database for station/object W5COG. If no packets are shown the sender has not sent any weather packets the latest 10 day(s).
| Time | Temp. | Humidity | Pressure | Rain* | Wind** | Luminosity | Snow |
|---|---|---|---|---|---|---|---|
| 1777711827 | 12.78° C | 58% | 1020.1 hPa | 0 mm | - | 0 W/m² | - |
| 1777711527 | 12.78° C | 57% | 1020 hPa | 0 mm | - | 0 W/m² | - |
| 1777711227 | 12.78° C | 57% | 1019.9 hPa | 0 mm | - | 0 W/m² | - |
| 1777710927 | 12.78° C | 57% | 1019.9 hPa | 0 mm | - | 0 W/m² | - |
| 1777710627 | 12.78° C | 60% | 1019.8 hPa | 0 mm | - | 0 W/m² | - |
| 1777710327 | 12.78° C | 62% | 1019.6 hPa | 0 mm | - | 0 W/m² | - |
| 1777710027 | 12.22° C | 63% | 1019.4 hPa | 0 mm | - | 0 W/m² | - |
| 1777709727 | 12.22° C | 67% | 1019.3 hPa | 0 mm | - | 0 W/m² | - |
| 1777709427 | 12.22° C | 69% | 1019.2 hPa | 0 mm | - | 0 W/m² | - |
| 1777709127 | 11.67° C | 69% | 1019.1 hPa | 0 mm | - | 0 W/m² | - |
| 1777708827 | 11.67° C | 70% | 1019 hPa | 0 mm | - | 0 W/m² | - |
| 1777708527 | 11.11° C | 69% | 1019 hPa | 0 mm | - | 0 W/m² | - |
| 1777708227 | 11.11° C | 70% | 1019 hPa | 0 mm | - | 0 W/m² | - |
| 1777707927 | 10.56° C | 69% | 1018.8 hPa | 0 mm | - | 0 W/m² | - |
| 1777707627 | 10.56° C | 65% | 1018.8 hPa | 0 mm | - | 0 W/m² | - |
| 1777707327 | 10.56° C | 64% | 1018.8 hPa | 0 mm | - | 0 W/m² | - |
| 1777707027 | 10.56° C | 67% | 1018.7 hPa | 0 mm | - | 0 W/m² | - |
| 1777706727 | 10° C | 67% | 1018.7 hPa | 0 mm | - | 0 W/m² | - |
| 1777706427 | 10.56° C | 68% | 1018.7 hPa | 0 mm | - | 0 W/m² | - |
| 1777706127 | 10.56° C | 66% | 1018.7 hPa | 0 mm | - | 0 W/m² | - |
| 1777705827 | 10.56° C | 64% | 1018.7 hPa | 0 mm | - | 0 W/m² | - |
| 1777705527 | 10.56° C | 60% | 1018.7 hPa | 0 mm | - | 0 W/m² | - |
| 1777704627 | 10.56° C | 60% | 1018.7 hPa | 0 mm | - | 0 W/m² | - |
| 1777704327 | 10.56° C | 65% | 1018.6 hPa | 0 mm | - | 0 W/m² | - |
| 1777704027 | 10.56° C | 59% | 1018.8 hPa | 0 mm | - | 0 W/m² | - |
* Rain latest hour (hover to see other rain measurements)
** Current wind speed in m/s (hover to see current wind gust speed)